Time;durP1;ratioP1;P1;durP2;ratioP2;P2;SDS_P1;SDS_P2;PMS_P1;PMS_P2;Temp;Humidity;BMP_temperature;BMP_pressure;BME280_temperature;BME280_humidity;BME280_pressure;Samples;Min_cycle;Max_cycle;Signal;HPM_P1;HPM_P2
2022/01/08 00:01:25;;;;;;;9.20;4.82;;;;;;;3.24;81.88;99237.25;5054504;28;20156;-85
2022/01/08 00:03:51;;;;;;;6.13;2.72;;;;;;;3.27;81.88;99232.22;5052866;28;20020;-85
2022/01/08 00:09:02;;;;;;;7.28;3.08;;;;;;;3.27;81.21;99226.03;5073148;28;21314;-85
2022/01/08 00:11:27;;;;;;;8.10;3.63;;;;;;;3.34;80.83;99232.13;5060908;28;20434;-84
2022/01/08 00:13:53;;;;;;;9.80;4.22;;;;;;;3.40;80.81;99230.38;5056228;28;20024;-84
2022/01/08 00:16:19;;;;;;;10.60;3.95;;;;;;;3.37;81.01;99223.59;5074599;28;20016;-86
2022/01/08 00:18:44;;;;;;;12.30;4.30;;;;;;;3.31;80.33;99229.91;5072048;28;20108;-84
2022/01/08 00:21:09;;;;;;;10.82;4.88;;;;;;;3.23;81.05;99230.22;5072797;28;20054;-84
2022/01/08 00:23:35;;;;;;;8.38;4.28;;;;;;;3.27;81.23;99237.59;5072854;28;20376;-84
2022/01/08 00:26:00;;;;;;;11.13;3.60;;;;;;;3.08;81.23;99236.84;5075586;28;20056;-85
2022/01/08 00:28:26;;;;;;;12.63;5.05;;;;;;;3.18;81.45;99235.47;5069694;28;20024;-84
2022/01/08 00:30:52;;;;;;;8.07;4.07;;;;;;;3.18;81.83;99243.56;5072707;28;20124;-85
2022/01/08 00:33:17;;;;;;;10.25;5.10;;;;;;;3.09;81.01;99246.56;5075568;28;20091;-84
2022/01/08 00:35:42;;;;;;;9.55;3.42;;;;;;;3.18;81.25;99243.56;5073825;28;20112;-85
2022/01/08 00:38:08;;;;;;;9.55;4.93;;;;;;;3.31;81.42;99243.38;5073068;28;20071;-85
2022/01/08 00:40:33;;;;;;;9.55;5.00;;;;;;;3.23;81.50;99241.84;5071067;28;20499;-84
2022/01/08 00:42:58;;;;;;;8.52;4.63;;;;;;;3.22;81.45;99244.75;5071990;28;20107;-85
2022/01/08 00:45:24;;;;;;;8.13;3.75;;;;;;;3.31;81.08;99240.69;5070970;28;20070;-85
2022/01/08 00:47:50;;;;;;;7.43;4.47;;;;;;;3.29;80.83;99239.25;5072177;28;20287;-84
2022/01/08 00:53:00;;;;;;;9.93;4.05;;;;;;;3.15;82.35;99248.34;5064417;28;20387;-85
2022/01/08 00:55:25;;;;;;;11.02;5.28;;;;;;;3.34;81.78;99253.69;5068003;28;20032;-84
2022/01/08 00:57:50;;;;;;;10.18;5.30;;;;;;;3.33;81.23;99241.28;5071489;28;20027;-85
2022/01/08 01:00:16;;;;;;;9.30;4.45;;;;;;;3.31;81.25;99238.00;5068531;28;20360;-85
2022/01/08 01:02:41;;;;;;;9.48;5.63;;;;;;;3.24;82.10;99231.84;5070528;28;20074;-85
2022/01/08 01:05:07;;;;;;;10.75;5.57;;;;;;;3.30;81.50;99244.41;5074057;28;20448;-85
2022/01/08 01:07:33;;;;;;;18.00;6.40;;;;;;;3.31;81.79;99243.38;5070754;28;20042;-84
2022/01/08 01:09:59;;;;;;;9.27;5.38;;;;;;;3.12;81.54;99245.28;5072923;28;20025;-84
2022/01/08 01:12:24;;;;;;;10.25;5.40;;;;;;;3.07;82.02;99243.25;5069734;28;20112;-85
2022/01/08 01:14:49;;;;;;;13.00;4.53;;;;;;;3.01;82.58;99246.91;5070108;28;20024;-84
2022/01/08 01:17:15;;;;;;;8.55;4.35;;;;;;;3.08;82.30;99244.09;5070533;28;20059;-84
2022/01/08 01:19:40;;;;;;;13.23;5.97;;;;;;;3.05;82.30;99250.78;5069053;28;20451;-84
2022/01/08 01:22:06;;;;;;;12.80;5.47;;;;;;;2.94;82.46;99243.44;5071892;28;20032;-85
2022/01/08 01:24:33;;;;;;;12.07;5.72;;;;;;;2.90;82.73;99241.22;5051060;28;20032;-85
2022/01/08 01:29:51;;;;;;;13.27;6.30;;;;;;;2.89;82.09;99238.72;5071958;28;20024;-85
2022/01/08 01:48:53;;;;;;;10.15;5.78;;;;;;;2.65;83.14;99249.38;5074164;28;20396;-84
2022/01/08 01:51:23;;;;;;;13.55;6.15;;;;;;;2.72;82.23;99249.31;5070435;28;20443;-85
2022/01/08 01:53:50;;;;;;;13.75;6.15;;;;;;;2.71;82.88;99250.34;5072332;28;20042;-84
2022/01/08 01:56:19;;;;;;;12.93;6.72;;;;;;;2.64;82.93;99251.28;5068299;28;20081;-85
2022/01/08 01:58:46;;;;;;;13.18;6.10;;;;;;;2.72;82.90;99260.91;5069139;28;20035;-84
2022/01/08 02:01:12;;;;;;;12.13;6.47;;;;;;;2.61;83.09;99273.25;5070341;28;20178;-85
2022/01/08 02:03:37;;;;;;;10.80;6.95;;;;;;;2.52;83.15;99263.84;5075176;28;20125;-85
2022/01/08 02:06:02;;;;;;;13.48;6.75;;;;;;;2.54;83.16;99267.91;5076213;28;20020;-84
2022/01/08 02:08:29;;;;;;;14.90;7.32;;;;;;;2.53;83.25;99271.66;5077159;28;20020;-84
2022/01/08 02:10:54;;;;;;;22.13;7.82;;;;;;;2.56;82.94;99259.66;5057040;28;20151;-84
2022/01/08 02:13:24;;;;;;;17.08;6.70;;;;;;;2.49;82.59;99264.25;5051946;28;20123;-85
2022/01/08 02:15:54;;;;;;;17.55;7.05;;;;;;;2.48;83.08;99259.94;5075502;28;20032;-84
2022/01/08 02:18:25;;;;;;;10.80;5.85;;;;;;;2.44;83.41;99273.81;5074978;28;20097;-84
2022/01/08 02:20:55;;;;;;;14.93;6.07;;;;;;;2.28;83.63;99271.72;5074035;28;20024;-85
2022/01/08 02:23:21;;;;;;;13.23;8.07;;;;;;;2.27;83.16;99275.44;5073991;28;20123;-85
2022/01/08 02:25:46;;;;;;;15.55;7.40;;;;;;;2.28;84.14;99280.59;5074226;28;20103;-84
2022/01/08 02:28:11;;;;;;;13.70;7.50;;;;;;;2.35;83.78;99277.03;5076703;28;20055;-84
2022/01/08 02:30:37;;;;;;;17.48;8.65;;;;;;;2.34;83.15;99270.81;5071758;28;20052;-84
2022/01/08 02:33:02;;;;;;;14.02;6.93;;;;;;;2.27;83.16;99270.91;5057187;28;20017;-84
2022/01/08 02:35:28;;;;;;;11.40;7.25;;;;;;;2.29;84.13;99263.44;5057264;28;20016;-84
2022/01/08 02:37:53;;;;;;;13.23;7.88;;;;;;;2.16;84.49;99260.84;5074555;28;20029;-85
2022/01/08 02:40:20;;;;;;;11.38;5.68;;;;;;;2.19;84.07;99261.25;5054999;28;20052;-85
2022/01/08 02:43:02;;;;;;;17.48;7.70;;;;;;;2.16;84.29;99256.31;5074253;28;20028;-84
2022/01/08 02:45:29;;;;;;;13.68;8.68;;;;;;;2.14;83.01;99258.38;5057823;28;20024;-85
2022/01/08 02:47:55;;;;;;;14.52;8.13;;;;;;;2.17;83.85;99249.91;5071963;28;20028;-84
2022/01/08 02:50:21;;;;;;;12.55;8.35;;;;;;;2.12;83.49;99254.28;5073836;28;20043;-84
2022/01/08 02:52:48;;;;;;;16.23;8.02;;;;;;;2.03;83.78;99259.13;5074387;28;20048;-84
2022/01/08 02:55:16;;;;;;;15.13;7.70;;;;;;;1.95;84.46;99263.72;5074176;28;20024;-84
2022/01/08 02:57:42;;;;;;;19.80;9.93;;;;;;;2.13;84.38;99256.75;5075231;28;20480;-84
2022/01/08 03:00:09;;;;;;;15.35;7.30;;;;;;;2.19;83.36;99255.03;5072296;28;20059;-84
2022/01/08 03:02:40;;;;;;;16.63;9.48;;;;;;;2.11;84.07;99258.84;5073863;28;20035;-84
2022/01/08 03:05:07;;;;;;;14.63;7.80;;;;;;;2.17;83.70;99249.91;5074724;28;20028;-85
2022/01/08 03:07:33;;;;;;;31.38;9.45;;;;;;;2.16;83.64;99245.53;5072652;28;20024;-84
2022/01/08 03:09:58;;;;;;;16.40;8.23;;;;;;;2.15;83.14;99249.28;5053819;28;20033;-84
2022/01/08 03:12:27;;;;;;;14.10;8.23;;;;;;;2.13;82.97;99240.63;5073809;28;20077;-84
2022/01/08 03:14:55;;;;;;;13.60;9.25;;;;;;;1.99;83.52;99250.69;5072781;28;21128;-84
2022/01/08 03:20:03;;;;;;;18.02;10.52;;;;;;;2.13;83.33;99259.44;5075976;28;20029;-85
2022/01/08 03:22:30;;;;;;;18.67;9.25;;;;;;;1.97;83.62;99258.94;5073332;28;20034;-85
2022/01/08 03:24:55;;;;;;;19.25;8.10;;;;;;;2.13;83.64;99255.94;5073740;28;20103;-84
2022/01/08 03:27:20;;;;;;;14.82;8.18;;;;;;;1.92;84.54;99260.66;5072049;28;20056;-85
2022/01/08 03:29:46;;;;;;;34.00;9.07;;;;;;;2.02;83.78;99265.53;5072342;28;20047;-84
2022/01/08 03:32:11;;;;;;;22.95;9.18;;;;;;;1.97;83.70;99264.31;5072008;28;20123;-84
2022/01/08 03:34:36;;;;;;;17.85;8.15;;;;;;;1.93;84.15;99257.72;5068671;28;20040;-85
2022/01/08 03:37:03;;;;;;;17.60;8.93;;;;;;;1.86;84.47;99267.72;5073807;28;20052;-85
2022/01/08 03:39:28;;;;;;;16.60;9.40;;;;;;;2.01;84.17;99264.72;5053485;28;20035;-85
2022/01/08 03:41:54;;;;;;;22.67;10.32;;;;;;;2.08;83.91;99264.66;5074193;28;20055;-85
2022/01/08 03:44:20;;;;;;;18.30;9.90;;;;;;;2.15;83.13;99264.59;5050554;28;20037;-85
2022/01/08 03:46:46;;;;;;;17.83;10.85;;;;;;;1.88;83.88;99265.66;5072726;28;20028;-85
2022/01/08 03:49:25;;;;;;;18.65;8.77;;;;;;;1.85;83.29;99274.16;5054887;28;20024;-85
2022/01/08 03:51:55;;;;;;;16.40;10.00;;;;;;;1.98;84.09;99276.75;5075120;28;20468;-83
2022/01/08 03:54:21;;;;;;;18.60;10.27;;;;;;;1.92;84.47;99277.63;5072690;28;20051;-85
2022/01/08 03:56:47;;;;;;;16.05;9.52;;;;;;;1.88;84.51;99289.03;5053230;28;21002;-83
2022/01/08 03:59:12;;;;;;;21.95;11.00;;;;;;;1.94;83.73;99290.84;5072421;28;20024;-85
2022/01/08 04:01:38;;;;;;;21.33;10.25;;;;;;;1.97;84.35;99291.22;5071811;28;20531;-83
2022/01/08 04:04:03;;;;;;;16.15;8.45;;;;;;;2.06;84.09;99290.94;5070587;28;20081;-86
2022/01/08 04:06:29;;;;;;;18.95;11.52;;;;;;;1.97;83.90;99301.97;5070460;28;20039;-85
2022/01/08 04:08:57;;;;;;;20.27;11.20;;;;;;;2.10;83.51;99294.84;5071948;28;20721;-85
2022/01/08 04:11:26;;;;;;;23.42;11.07;;;;;;;2.01;83.83;99302.38;5075195;28;20028;-84
2022/01/08 04:13:54;;;;;;;20.05;11.20;;;;;;;1.98;83.63;99305.50;5071508;28;20023;-85
2022/01/08 04:16:28;;;;;;;15.30;10.10;;;;;;;1.90;84.18;99311.97;5076513;28;20433;-84
2022/01/08 04:18:54;;;;;;;23.75;12.82;;;;;;;1.82;84.84;99317.59;5075037;28;20115;-84
2022/01/08 04:23:51;;;;;;;18.15;10.30;;;;;;;1.94;84.38;99321.25;5070247;28;20417;-85
2022/01/08 04:26:19;;;;;;;32.58;12.02;;;;;;;1.80;85.24;99327.75;5070171;28;20043;-84
2022/01/08 04:28:45;;;;;;;19.20;13.02;;;;;;;1.86;84.81;99322.34;5074328;28;20027;-84
2022/01/08 04:31:10;;;;;;;23.70;12.57;;;;;;;1.96;84.83;99329.91;5069903;28;20041;-85
2022/01/08 04:33:36;;;;;;;20.50;13.27;;;;;;;1.86;84.77;99327.72;5070314;28;20503;-85
2022/01/08 04:36:01;;;;;;;23.08;12.73;;;;;;;1.81;84.58;99330.22;5071210;28;20153;-84
2022/01/08 04:38:27;;;;;;;26.27;11.13;;;;;;;1.93;84.06;99327.66;5071876;28;20056;-85
2022/01/08 04:40:52;;;;;;;28.58;13.95;;;;;;;1.75;84.73;99331.91;5069471;28;20104;-85
2022/01/08 04:43:17;;;;;;;27.67;12.88;;;;;;;1.79;84.43;99336.88;5070159;28;20056;-84
2022/01/08 04:45:43;;;;;;;28.23;14.27;;;;;;;1.75;84.38;99341.84;5076466;28;20044;-84
2022/01/08 04:48:08;;;;;;;24.17;13.30;;;;;;;1.81;84.61;99340.16;5071991;28;20025;-84
2022/01/08 04:53:55;;;;;;;26.65;15.73;;;;;;;1.70;84.83;99345.19;5072752;28;20141;-84
2022/01/08 04:56:21;;;;;;;29.00;17.50;;;;;;;1.60;84.58;99351.03;5052288;28;20078;-85
2022/01/08 04:58:46;;;;;;;22.92;14.50;;;;;;;1.66;84.64;99360.09;5054929;28;20016;-84
2022/01/08 05:01:13;;;;;;;28.05;15.13;;;;;;;1.82;84.10;99358.75;5074084;28;20078;-85
2022/01/08 05:03:39;;;;;;;26.10;17.90;;;;;;;1.86;83.84;99367.22;5070818;28;20032;-85
2022/01/08 05:06:04;;;;;;;30.52;14.52;;;;;;;1.69;84.58;99359.66;5072204;28;20016;-84
2022/01/08 05:08:29;;;;;;;33.90;17.90;;;;;;;1.58;84.93;99355.81;5052632;28;20027;-86
2022/01/08 05:10:55;;;;;;;36.45;19.13;;;;;;;1.73;84.11;99360.88;5053562;28;20041;-85
2022/01/08 05:13:20;;;;;;;30.67;16.33;;;;;;;1.75;84.84;99355.28;5071761;28;20026;-84
2022/01/08 05:15:45;;;;;;;29.88;15.45;;;;;;;1.67;84.17;99353.66;5070537;28;21118;-84
2022/01/08 05:18:11;;;;;;;29.83;16.40;;;;;;;1.77;84.59;99363.94;5053240;28;20434;-84
2022/01/08 05:20:39;;;;;;;27.98;16.73;;;;;;;1.82;84.02;99363.31;5074346;28;20392;-82
2022/01/08 05:26:27;;;;;;;29.10;19.58;;;;;;;1.60;84.99;99360.97;5069307;28;21159;-84
2022/01/08 05:28:52;;;;;;;32.17;17.95;;;;;;;1.74;84.76;99367.09;5072428;28;20025;-84
2022/01/08 05:31:21;;;;;;;33.88;18.88;;;;;;;1.68;84.26;99363.41;5072535;28;20415;-84
2022/01/08 05:33:47;;;;;;;35.10;17.50;;;;;;;1.67;83.86;99360.94;5071298;28;20020;-85
2022/01/08 05:36:13;;;;;;;23.40;15.13;;;;;;;1.62;84.32;99359.72;5071743;28;20024;-85
2022/01/08 05:38:38;;;;;;;30.48;17.30;;;;;;;1.65;83.98;99368.38;5072749;28;20115;-85
2022/01/08 05:41:04;;;;;;;26.52;16.92;;;;;;;1.81;83.43;99367.84;5074861;28;20044;-84
2022/01/08 05:43:29;;;;;;;29.90;15.73;;;;;;;1.72;83.81;99369.16;5073600;28;20059;-85
2022/01/08 05:45:56;;;;;;;30.40;17.20;;;;;;;1.61;83.80;99365.28;5075973;28;20025;-85
2022/01/08 05:48:23;;;;;;;34.53;18.30;;;;;;;1.64;84.38;99372.94;5075109;28;20051;-85
2022/01/08 05:50:49;;;;;;;26.42;15.57;;;;;;;1.57;84.01;99366.75;5062123;28;20031;-84
2022/01/08 05:53:19;;;;;;;26.50;16.40;;;;;;;1.56;84.14;99365.94;5072865;28;20070;-85
2022/01/08 05:55:45;;;;;;;30.60;19.20;;;;;;;1.36;84.83;99374.91;5072794;28;20028;-85
2022/01/08 05:58:10;;;;;;;32.45;19.27;;;;;;;1.40;85.11;99372.63;5074084;28;20365;-85
2022/01/08 06:00:36;;;;;;;25.15;16.10;;;;;;;1.51;84.29;99373.81;5058225;28;20044;-84
2022/01/08 06:03:01;;;;;;;32.65;17.02;;;;;;;1.58;84.43;99373.78;5076438;28;20052;-85
2022/01/08 06:05:26;;;;;;;25.95;15.07;;;;;;;1.62;83.48;99375.00;5074687;28;20468;-84
2022/01/08 06:07:52;;;;;;;34.70;17.55;;;;;;;1.62;83.41;99377.69;5076406;28;20027;-85
2022/01/08 06:10:18;;;;;;;29.83;15.63;;;;;;;1.59;83.88;99386.19;5077026;28;20023;-85
2022/01/08 06:12:44;;;;;;;29.27;17.30;;;;;;;1.51;83.99;99384.56;5073409;28;20093;-84
2022/01/08 06:15:09;;;;;;;30.80;15.25;;;;;;;1.45;83.77;99386.25;5072595;28;20028;-85
2022/01/08 06:17:35;;;;;;;23.42;16.85;;;;;;;1.50;84.17;99388.31;5076457;28;20078;-84
2022/01/08 06:20:00;;;;;;;32.70;18.48;;;;;;;1.40;84.56;99392.25;5073624;28;20024;-84
2022/01/08 06:22:25;;;;;;;25.65;15.65;;;;;;;1.36;84.54;99387.53;5071888;28;20023;-84
2022/01/08 06:24:51;;;;;;;27.40;14.48;;;;;;;1.32;84.69;99387.16;5076245;28;20027;-84
2022/01/08 06:27:34;;;;;;;25.90;15.50;;;;;;;1.31;84.40;99390.84;5073236;28;20459;-84
2022/01/08 06:30:00;;;;;;;26.15;15.20;;;;;;;1.40;84.30;99388.75;5059982;28;20166;-85
2022/01/08 06:32:25;;;;;;;29.98;17.50;;;;;;;1.35;84.30;99391.25;5075735;28;20099;-84
2022/01/08 06:34:50;;;;;;;31.52;14.90;;;;;;;1.40;83.91;99388.75;5073815;28;20028;-84
2022/01/08 06:37:16;;;;;;;29.30;15.55;;;;;;;1.31;83.90;99390.84;5072675;28;20029;-85
2022/01/08 06:39:41;;;;;;;22.38;14.27;;;;;;;1.42;84.10;99392.06;5072012;28;20029;-84
2022/01/08 06:42:06;;;;;;;30.33;14.88;;;;;;;1.35;84.23;99391.25;5075064;28;20099;-84
2022/01/08 06:44:32;;;;;;;28.73;14.05;;;;;;;1.48;83.71;99401.13;5073024;28;20097;-86
2022/01/08 06:46:57;;;;;;;34.15;16.80;;;;;;;1.48;83.47;99414.56;5075627;28;20017;-85
2022/01/08 06:49:23;;;;;;;27.63;14.82;;;;;;;1.43;84.07;99403.59;5072007;28;20487;-84
2022/01/08 06:51:48;;;;;;;29.73;16.30;;;;;;;1.41;83.82;99417.25;5075904;28;20036;-85
2022/01/08 06:54:13;;;;;;;24.58;13.18;;;;;;;1.36;83.82;99435.91;5073677;28;20039;-85
2022/01/08 06:56:39;;;;;;;29.05;14.30;;;;;;;1.38;83.92;99431.13;5075868;28;20063;-84
2022/01/08 06:59:04;;;;;;;22.88;14.30;;;;;;;1.48;84.21;99439.56;5074556;28;20031;-84
2022/01/08 07:01:29;;;;;;;28.15;15.70;;;;;;;1.60;83.68;99438.91;5076552;28;20017;-85
2022/01/08 07:03:55;;;;;;;28.52;13.93;;;;;;;1.54;83.51;99453.19;5072322;28;20036;-84
2022/01/08 07:06:21;;;;;;;26.70;13.95;;;;;;;1.54;84.41;99448.66;5072900;28;20020;-85
2022/01/08 07:08:46;;;;;;;30.20;16.38;;;;;;;1.48;84.22;99457.56;5073251;28;20544;-86
2022/01/08 07:11:11;;;;;;;32.17;15.97;;;;;;;1.59;84.14;99456.88;5070877;28;20012;-85
2022/01/08 07:13:36;;;;;;;27.67;16.08;;;;;;;1.66;84.04;99456.88;5054257;28;20257;-85
2022/01/08 07:16:02;;;;;;;26.52;16.63;;;;;;;1.70;83.51;99458.09;5071812;28;20477;-84
2022/01/08 07:18:27;;;;;;;30.70;17.17;;;;;;;1.71;83.51;99454.34;5074357;28;20024;-85
2022/01/08 07:20:54;;;;;;;33.17;16.40;;;;;;;1.57;84.27;99458.13;5073141;28;20020;-85
2022/01/08 07:23:20;;;;;;;27.65;16.75;;;;;;;1.59;83.89;99454.19;5071661;28;20040;-85
2022/01/08 07:25:45;;;;;;;31.80;17.65;;;;;;;1.60;84.32;99458.53;5074964;28;20020;-86
2022/01/08 07:28:11;;;;;;;30.73;17.50;;;;;;;1.56;84.68;99462.69;5056817;28;20020;-85
2022/01/08 07:30:36;;;;;;;28.77;17.17;;;;;;;1.68;83.91;99454.78;5051078;28;20125;-85
2022/01/08 07:33:01;;;;;;;35.97;19.48;;;;;;;1.82;83.53;99454.72;5068055;28;20064;-84
2022/01/08 07:35:27;;;;;;;33.92;17.42;;;;;;;1.71;84.08;99448.97;5054725;28;20024;-85
2022/01/08 07:40:55;;;;;;;29.02;16.85;;;;;;;1.63;85.09;99463.47;5071805;28;20052;-85
2022/01/08 07:43:20;;;;;;;28.35;18.10;;;;;;;1.73;84.75;99456.81;5074370;28;20016;-85
2022/01/08 07:45:46;;;;;;;29.67;16.95;;;;;;;1.74;84.04;99456.63;5072945;28;20024;-85
2022/01/08 07:48:11;;;;;;;27.23;16.67;;;;;;;1.77;84.23;99454.56;5072160;28;20017;-85
2022/01/08 07:50:38;;;;;;;29.15;15.75;;;;;;;1.68;85.00;99460.16;5074881;28;20023;-85
2022/01/08 07:53:03;;;;;;;32.17;17.95;;;;;;;1.73;84.92;99457.66;5074087;28;20021;-84
2022/01/08 07:55:28;;;;;;;36.83;16.90;;;;;;;1.79;84.74;99465.91;5072786;28;20035;-85
2022/01/08 07:57:54;;;;;;;28.55;17.30;;;;;;;1.81;84.72;99464.63;5074677;28;20055;-86
2022/01/08 08:00:19;;;;;;;22.13;15.38;;;;;;;1.69;84.48;99456.44;5069665;28;21259;-85
2022/01/08 08:02:44;;;;;;;41.35;16.17;;;;;;;1.78;85.15;99465.09;5069332;28;20073;-85
2022/01/08 08:05:10;;;;;;;26.90;16.67;;;;;;;1.93;84.32;99469.38;5058687;28;20119;-85
2022/01/08 08:07:38;;;;;;;31.70;15.93;;;;;;;1.97;84.33;99468.69;5072469;28;20020;-85
2022/01/08 08:10:17;;;;;;;31.90;16.48;;;;;;;1.96;83.39;99467.06;5069912;28;20383;-85
2022/01/08 08:12:42;;;;;;;28.05;14.90;;;;;;;1.90;84.54;99467.91;5069034;28;20506;-85
2022/01/08 08:15:28;;;;;;;31.00;15.15;;;;;;;2.03;83.90;99458.13;5068859;28;20024;-85
2022/01/08 08:17:54;;;;;;;28.08;14.48;;;;;;;2.21;83.06;99463.63;5073092;28;20031;-86
2022/01/08 08:20:19;;;;;;;30.88;17.45;;;;;;;2.09;83.77;99466.19;5070953;28;20036;-84
2022/01/08 08:22:45;;;;;;;44.65;15.35;;;;;;;1.91;84.07;99471.44;5072305;28;20029;-85
2022/01/08 08:25:11;;;;;;;28.98;15.18;;;;;;;2.08;84.30;99467.19;5071132;28;20035;-86
2022/01/08 08:27:39;;;;;;;28.60;14.07;;;;;;;1.87;84.19;99462.97;5070450;28;20024;-86
2022/01/08 08:30:20;;;;;;;26.20;16.83;;;;;;;1.96;84.63;99450.94;5070793;28;20021;-85
2022/01/08 08:32:46;;;;;;;24.70;13.38;;;;;;;2.05;84.33;99458.75;5069487;28;20849;-85
2022/01/08 08:35:11;;;;;;;33.00;16.33;;;;;;;1.88;84.83;99459.25;5073097;28;20138;-86
2022/01/08 08:37:38;;;;;;;23.98;13.65;;;;;;;1.59;85.70;99447.97;5073157;28;20013;-86
2022/01/08 08:40:04;;;;;;;28.10;13.93;;;;;;;1.83;86.38;99449.13;5074000;28;20101;-86
2022/01/08 08:42:30;;;;;;;24.17;14.98;;;;;;;1.94;84.62;99450.31;5072102;28;20033;-86
2022/01/08 08:44:56;;;;;;;24.50;15.13;;;;;;;1.73;85.75;99448.75;5057633;28;20568;-87
2022/01/08 08:47:21;;;;;;;36.65;16.45;;;;;;;1.86;84.89;99445.19;5050728;28;20027;-86
2022/01/08 08:49:46;;;;;;;26.02;14.52;;;;;;;1.97;85.19;99447.19;5072247;28;20633;-85
2022/01/08 08:52:12;;;;;;;22.58;13.85;;;;;;;2.01;84.30;99444.06;5071244;28;20031;-86
2022/01/08 08:54:40;;;;;;;29.83;15.70;;;;;;;1.96;84.40;99433.97;5071453;28;20017;-85
2022/01/08 08:57:05;;;;;;;29.23;15.88;;;;;;;2.00;84.58;99434.34;5072806;28;20131;-86
2022/01/08 08:59:31;;;;;;;25.23;13.50;;;;;;;2.15;84.48;99448.34;5054666;28;20027;-86
2022/01/08 09:01:56;;;;;;;26.20;12.73;;;;;;;2.31;83.92;99446.16;5073291;28;20032;-86
2022/01/08 09:04:34;;;;;;;28.27;13.93;;;;;;;2.14;83.98;99440.47;5070661;28;20047;-85
2022/01/08 09:06:59;;;;;;;19.88;12.30;;;;;;;2.24;84.33;99437.31;5069941;28;20704;-85
2022/01/08 09:09:26;;;;;;;25.40;12.43;;;;;;;2.04;84.83;99441.78;5050077;28;20586;-86
2022/01/08 09:11:51;;;;;;;25.83;13.65;;;;;;;2.01;85.40;99439.53;5071521;28;20095;-86
2022/01/08 09:14:17;;;;;;;28.98;12.75;;;;;;;2.11;84.60;99433.69;5071788;28;20035;-86
2022/01/08 09:16:49;;;;;;;26.45;13.98;;;;;;;2.25;83.72;99433.56;5072130;28;20388;-84
2022/01/08 09:19:16;;;;;;;22.92;12.73;;;;;;;2.28;84.07;99433.16;5073523;28;20029;-86
2022/01/08 09:21:41;;;;;;;21.00;12.13;;;;;;;2.25;84.88;99436.28;5054134;28;20495;-86
2022/01/08 09:24:07;;;;;;;29.48;12.68;;;;;;;2.43;84.08;99436.34;5072466;28;20021;-85
2022/01/08 09:26:32;;;;;;;24.45;13.40;;;;;;;2.55;83.32;99431.06;5069757;28;20032;-86
2022/01/08 09:28:58;;;;;;;23.08;13.90;;;;;;;2.47;83.05;99428.66;5073013;28;20635;-86
2022/01/08 09:31:23;;;;;;;24.30;12.32;;;;;;;2.54;83.73;99428.63;5074765;28;20050;-86
2022/01/08 09:33:48;;;;;;;32.55;14.10;;;;;;;2.67;83.22;99433.88;5069214;28;20396;-86
2022/01/08 09:36:14;;;;;;;26.98;14.70;;;;;;;2.41;83.52;99426.84;5073055;28;20411;-86
2022/01/08 09:38:39;;;;;;;25.75;13.32;;;;;;;2.64;83.58;99428.13;5055279;28;20396;-85
2022/01/08 09:41:05;;;;;;;24.27;13.30;;;;;;;2.67;82.71;99428.50;5068164;28;20059;-86
2022/01/08 09:43:32;;;;;;;34.88;15.18;;;;;;;2.51;83.30;99421.78;5069722;28;20020;-86
2022/01/08 09:45:57;;;;;;;28.90;13.35;;;;;;;2.73;82.86;99421.41;5070637;28;20066;-86
2022/01/08 09:48:22;;;;;;;28.13;12.70;;;;;;;2.60;83.49;99416.13;5065071;28;20417;-86
2022/01/08 09:50:48;;;;;;;27.13;12.90;;;;;;;2.44;84.00;99418.34;5062180;28;20071;-86
2022/01/08 09:53:13;;;;;;;25.05;15.55;;;;;;;2.61;84.58;99421.28;5063097;28;20051;-86
2022/01/08 09:55:39;;;;;;;30.95;14.43;;;;;;;2.51;84.11;99407.50;5062976;28;20117;-86
2022/01/08 09:58:05;;;;;;;26.23;14.68;;;;;;;2.32;84.61;99404.75;5062726;28;20638;-85
2022/01/08 10:00:34;;;;;;;28.38;17.45;;;;;;;2.35;84.67;99409.72;5062221;28;20052;-86
2022/01/08 10:03:26;;;;;;;40.33;18.85;;;;;;;2.45;84.23;99409.22;5063408;28;20507;-84
2022/01/08 10:05:55;;;;;;;27.73;14.27;;;;;;;2.44;84.78;99405.69;5063019;28;20361;-86
2022/01/08 10:08:30;;;;;;;21.02;12.50;;;;;;;2.52;84.83;99398.41;5062930;28;20024;-86
2022/01/08 10:11:02;;;;;;;32.20;14.63;;;;;;;2.38;84.90;99403.88;5063799;28;20016;-84
2022/01/08 10:19:24;;;;;;;42.72;13.35;;;;;;;2.59;84.67;99393.78;5062436;28;20058;-84
2022/01/08 10:21:51;;;;;;;23.15;12.80;;;;;;;2.72;84.00;99383.94;5062174;28;20869;-85
2022/01/08 10:24:20;;;;;;;31.13;12.45;;;;;;;2.77;83.48;99378.69;5045176;28;20135;-85
2022/01/08 10:26:46;;;;;;;22.10;12.18;;;;;;;2.98;83.39;99368.53;5066305;28;20035;-85
2022/01/08 10:29:14;;;;;;;23.67;12.30;;;;;;;2.85;82.76;99378.41;5065420;28;20032;-85
2022/01/08 10:31:42;;;;;;;32.67;13.18;;;;;;;2.90;83.43;99381.25;5064722;28;20499;-85
2022/01/08 10:34:11;;;;;;;20.63;10.13;;;;;;;2.92;82.83;99364.88;5064042;28;20033;-86
2022/01/08 10:36:42;;;;;;;24.98;10.18;;;;;;;2.80;83.14;99359.41;5064802;28;20024;-85
2022/01/08 10:39:22;;;;;;;22.08;10.45;;;;;;;2.83;83.11;99350.88;5064637;28;20024;-86
2022/01/08 10:41:50;;;;;;;27.95;11.23;;;;;;;2.88;83.18;99348.34;5065026;28;20758;-86
2022/01/08 10:44:17;;;;;;;24.55;13.30;;;;;;;2.86;83.29;99331.59;5064282;28;20082;-85
2022/01/08 10:46:58;;;;;;;28.73;15.55;;;;;;;2.88;82.65;99332.19;5065363;28;20032;-86
2022/01/08 10:49:35;;;;;;;30.23;15.93;;;;;;;2.95;82.79;99315.13;5064765;28;20032;-85
2022/01/08 10:52:03;;;;;;;18.15;9.45;;;;;;;2.65;82.71;99308.59;5064817;28;20043;-86
2022/01/08 10:54:30;;;;;;;19.90;10.02;;;;;;;2.69;82.98;99299.03;5065098;28;20024;-85
2022/01/08 10:57:00;;;;;;;18.50;10.68;;;;;;;2.64;83.20;99294.34;5064413;28;20029;-86
2022/01/08 10:59:26;;;;;;;17.25;9.70;;;;;;;2.75;82.98;99276.59;5064133;28;20043;-86
2022/01/08 11:01:56;;;;;;;31.50;11.90;;;;;;;2.83;83.07;99274.69;5065941;28;20023;-85
2022/01/08 11:04:50;;;;;;;17.00;9.77;;;;;;;2.81;82.27;99269.50;5064681;28;20457;-86
2022/01/08 11:07:21;;;;;;;20.02;10.25;;;;;;;2.90;82.62;99273.53;5045734;28;20127;-84
2022/01/08 11:09:49;;;;;;;17.67;10.80;;;;;;;2.61;82.10;99275.94;5064931;28;20059;-86
2022/01/08 11:18:00;;;;;;;23.98;10.55;;;;;;;2.78;83.03;99257.31;5064905;28;20256;-86
2022/01/08 11:20:32;;;;;;;16.55;9.50;;;;;;;2.78;82.53;99245.72;5064495;28;20064;-84
2022/01/08 11:22:59;;;;;;;17.67;10.20;;;;;;;2.66;82.89;99246.50;5064456;28;20025;-85
2022/01/08 11:25:33;;;;;;;22.88;9.57;;;;;;;2.84;81.76;99228.66;5065452;28;20062;-85
2022/01/08 11:28:07;;;;;;;17.92;9.90;;;;;;;2.81;82.22;99218.34;5064888;28;20526;-85
2022/01/08 11:30:36;;;;;;;18.73;10.00;;;;;;;2.99;82.20;99205.91;5064516;28;20491;-85
2022/01/08 11:33:09;;;;;;;22.02;10.45;;;;;;;2.89;81.71;99204.56;5045732;28;20044;-86
2022/01/08 11:35:36;;;;;;;14.85;8.00;;;;;;;2.87;80.47;99201.28;5064103;28;20210;-85
2022/01/08 11:38:07;;;;;;;13.93;7.88;;;;;;;2.83;80.64;99194.69;5065347;28;20024;-85
2022/01/08 11:40:33;;;;;;;13.55;6.55;;;;;;;2.85;80.93;99187.22;5064544;28;20053;-85
2022/01/08 11:43:02;;;;;;;13.77;7.13;;;;;;;3.01;80.19;99184.94;5063909;28;20039;-85
2022/01/08 11:45:30;;;;;;;14.50;6.47;;;;;;;3.00;79.84;99191.38;5065309;28;20494;-85
2022/01/08 11:47:59;;;;;;;13.02;6.45;;;;;;;2.94;79.56;99186.91;5064721;28;20127;-85
2022/01/08 11:50:27;;;;;;;12.23;5.90;;;;;;;2.95;79.55;99183.97;5065107;28;20036;-85
2022/01/08 11:53:23;;;;;;;23.05;7.32;;;;;;;2.99;79.68;99176.28;5063502;28;20040;-85
2022/01/08 11:55:51;;;;;;;13.20;5.88;;;;;;;2.82;79.69;99170.69;5054232;28;20067;-84
2022/01/08 11:58:26;;;;;;;11.30;6.40;;;;;;;2.82;78.93;99159.94;5046530;28;20025;-85
2022/01/08 12:01:03;;;;;;;12.40;6.60;;;;;;;2.96;79.75;99161.38;5063679;28;20031;-85
2022/01/08 12:03:52;;;;;;;16.83;6.13;;;;;;;3.07;78.40;99146.28;5063733;28;20017;-85
2022/01/08 12:06:30;;;;;;;10.07;5.68;;;;;;;3.30;77.53;99150.09;5063999;28;20033;-84
2022/01/08 12:09:10;;;;;;;20.70;6.53;;;;;;;3.32;76.63;99136.38;5064531;28;20078;-85
2022/01/08 12:11:35;;;;;;;11.85;4.88;;;;;;;3.06;77.27;99128.50;5063651;28;20250;-85
2022/01/08 12:14:16;;;;;;;8.10;4.07;;;;;;;3.21;77.17;99124.56;5062843;28;20415;-85
2022/01/08 12:16:54;;;;;;;13.65;5.53;;;;;;;3.16;76.74;99114.47;5062921;28;20020;-85
2022/01/08 12:19:39;;;;;;;10.32;5.05;;;;;;;3.09;76.61;99106.47;5045132;28;20029;-85
2022/01/08 12:22:16;;;;;;;12.05;3.75;;;;;;;2.96;76.96;99095.91;5063527;28;20060;-85